^^
WestSenecaWeather Station Historical Data
Daily Summary for January 12, 2017 Units:  Both    English   Metric
Daily Weekly Monthly Yearly Custom
  High: Low: Average:
Temperature: 58.8 °F /  14.9 °C 33.2 °F /  0.7 °C 45.1 °F /  7.3 °C
Dew Point: 53.6 °F /  12 °C 30.4 °F /  -0.9 °C 42.7 °F /  5.9 °C
Humidity: 97% 81% 91%
Wind Speed: 26.0mph /  41.8km/h - 9.6mph /  15.4km/h
Wind Gust: 26.0mph /  41.8km/h - -
Wind- - SW
Pressure: 30.25 in /  1024.3 hPa 29.69 in /  1005.3 hPa -
Precipitation: 0.38 in /  9.65 mm    
Historical Graphs
 
 
Tabular Data for January 12, 2017
Time Temperature Dew Point Pressure Wind Wind Speed Wind Gust Humidity Rainfall Rate (Hourly) solar
00:02 50.6 °F /  10.3 °C 46.3 °F /  7.9 °C 29.76in /  1007.7hPa South 18.0mph /  29km/h 18.0mph /  29km/h 85% 0.04in /  1.02mm 0.0 W/m2
00:07 50.9 °F /  10.5 °C 46.2 °F /  7.9 °C 29.75in /  1007.3hPa SSE 15.0mph /  24.1km/h 15.0mph /  24.1km/h 84% 0.04in /  1.02mm 0.0 W/m2
00:12 51.0 °F /  10.6 °C 46.3 °F /  7.9 °C 29.75in /  1007.3hPa SSE 12.7mph /  20.4km/h 12.7mph /  20.4km/h 84% 0.04in /  1.02mm 0.0 W/m2
00:17 50.9 °F /  10.5 °C 46.2 °F /  7.9 °C 29.75in /  1007.3hPa SSW 17.3mph /  27.8km/h 17.3mph /  27.8km/h 84% 0.04in /  1.02mm 0.0 W/m2
00:22 50.9 °F /  10.5 °C 46.2 °F /  7.9 °C 29.75in /  1007.3hPa SSE 11.5mph /  18.5km/h 11.5mph /  18.5km/h 84% 0.04in /  1.02mm 0.0 W/m2
00:27 51.3 °F /  10.7 °C 46.6 °F /  8.1 °C 29.74in /  1007hPa South 15.0mph /  24.1km/h 15.0mph /  24.1km/h 84% 0.04in /  1.02mm 0.0 W/m2
00:32 51.5 °F /  10.8 °C 46.8 °F /  8.2 °C 29.74in /  1007hPa SSE 10.4mph /  16.7km/h 10.4mph /  16.7km/h 84% 0.02in /  0.51mm 0.0 W/m2
00:37 51.8 °F /  11 °C 47.1 °F /  8.4 °C 29.74in /  1007hPa SSE 17.3mph /  27.8km/h 17.3mph /  27.8km/h 84% 0.02in /  0.51mm 0.0 W/m2
00:42 52.3 °F /  11.3 °C 47.6 °F /  8.7 °C 29.73in /  1006.7hPa SSW 16.1mph /  25.9km/h 16.1mph /  25.9km/h 84% 0.01in /  0.25mm 0.0 W/m2
00:47 52.7 °F /  11.5 °C 47.7 °F /  8.7 °C 29.73in /  1006.7hPa SSE 15.0mph /  24.1km/h 15.0mph /  24.1km/h 83% 0.00in /  0mm 0.0 W/m2
00:52 52.7 °F /  11.5 °C 48.0 °F /  8.9 °C 29.72in /  1006.3hPa South 16.1mph /  25.9km/h 16.1mph /  25.9km/h 84% 0.00in /  0mm 0.0 W/m2
00:57 52.8 °F /  11.6 °C 48.1 °F /  8.9 °C 29.72in /  1006.3hPa South 14.0mph /  22.5km/h 14.0mph /  22.5km/h 84% 0.00in /  0mm 0.0 W/m2
01:02 53.3 °F /  11.8 °C 48.6 °F /  9.2 °C 29.72in /  1006.3hPa SSE 23.0mph /  37km/h 23.0mph /  37km/h 84% 0.00in /  0mm 0.0 W/m2
01:07 53.6 °F /  12 °C 48.6 °F /  9.2 °C 29.71in /  1006hPa SSW 16.1mph /  25.9km/h 16.1mph /  25.9km/h 83% 0.00in /  0mm 0.0 W/m2
01:12 54.0 °F /  12.2 °C 49.0 °F /  9.4 °C 29.71in /  1006hPa SSE 19.6mph /  31.5km/h 19.6mph /  31.5km/h 83% 0.00in /  0mm 0.0 W/m2
01:17 54.0 °F /  12.2 °C 49.3 °F /  9.6 °C 29.71in /  1006hPa SSW 13.8mph /  22.2km/h 13.8mph /  22.2km/h 84% 0.00in /  0mm 0.0 W/m2
01:22 54.1 °F /  12.3 °C 49.4 °F /  9.7 °C 29.71in /  1006hPa South 11.5mph /  18.5km/h 11.5mph /  18.5km/h 84% 0.00in /  0mm 0.0 W/m2
01:27 54.3 °F /  12.4 °C 49.6 °F /  9.8 °C 29.70in /  1005.6hPa SE 21.9mph /  35.2km/h 21.9mph /  35.2km/h 84% 0.00in /  0mm 0.0 W/m2
01:32 54.4 °F /  12.4 °C 49.7 °F /  9.8 °C 29.71in /  1006hPa SSW 16.1mph /  25.9km/h 16.1mph /  25.9km/h 84% 0.00in /  0mm 0.0 W/m2
01:37 54.4 °F /  12.4 °C 49.7 °F /  9.8 °C 29.70in /  1005.6hPa SSW 13.8mph /  22.2km/h 13.8mph /  22.2km/h 84% 0.00in /  0mm 0.0 W/m2
01:42 54.6 °F /  12.6 °C 49.9 °F /  9.9 °C 29.70in /  1005.6hPa SSE 11.5mph /  18.5km/h 11.5mph /  18.5km/h 84% 0.00in /  0mm 0.0 W/m2
01:47 54.8 °F /  12.7 °C 50.4 °F /  10.2 °C 29.70in /  1005.6hPa SSW 13.8mph /  22.2km/h 13.8mph /  22.2km/h 85% 0.00in /  0mm 0.0 W/m2
01:52 54.2 °F /  12.3 °C 50.4 °F /  10.2 °C 29.70in /  1005.6hPa South 12.7mph /  20.4km/h 12.7mph /  20.4km/h 87% 0.01in /  0.25mm 0.0 W/m2
01:57 53.9 °F /  12.2 °C 50.4 °F /  10.2 °C 29.70in /  1005.6hPa South 18.4mph /  29.6km/h 18.4mph /  29.6km/h 88% 0.01in /  0.25mm 0.0 W/m2
02:02 53.9 °F /  12.2 °C 50.4 °F /  10.2 °C 29.69in /  1005.3hPa SW 13.8mph /  22.2km/h 13.8mph /  22.2km/h 88% 0.01in /  0.25mm 0.0 W/m2
02:07 53.9 °F /  12.2 °C 50.4 °F /  10.2 °C 29.69in /  1005.3hPa South 15.0mph /  24.1km/h 15.0mph /  24.1km/h 88% 0.01in /  0.25mm 0.0 W/m2
02:12 54.3 °F /  12.4 °C 50.5 °F /  10.3 °C 29.69in /  1005.3hPa SE 19.6mph /  31.5km/h 19.6mph /  31.5km/h 87% 0.01in /  0.25mm 0.0 W/m2
02:17 54.4 °F /  12.4 °C 50.6 °F /  10.3 °C 29.69in /  1005.3hPa SW 16.1mph /  25.9km/h 16.1mph /  25.9km/h 87% 0.01in /  0.25mm 0.0 W/m2
02:22 54.8 °F /  12.7 °C 50.7 °F /  10.4 °C 29.69in /  1005.3hPa SSE 19.6mph /  31.5km/h 19.6mph /  31.5km/h 86% 0.01in /  0.25mm 0.0 W/m2
02:27 54.9 °F /  12.7 °C 50.5 °F /  10.3 °C 29.69in /  1005.3hPa SSW 23.0mph /  37km/h 23.0mph /  37km/h 85% 0.01in /  0.25mm 0.0 W/m2
02:32 55.1 °F /  12.8 °C 50.7 °F /  10.4 °C 29.69in /  1005.3hPa SSE 11.5mph /  18.5km/h 11.5mph /  18.5km/h 85% 0.01in /  0.25mm 0.0 W/m2
02:37 55.1 °F /  12.8 °C 50.7 °F /  10.4 °C 29.69in /  1005.3hPa SSW 18.4mph /  29.6km/h 18.4mph /  29.6km/h 85% 0.01in /  0.25mm 0.0 W/m2
02:42 55.2 °F /  12.9 °C 50.8 °F /  10.4 °C 29.69in /  1005.3hPa SSE 10.4mph /  16.7km/h 10.4mph /  16.7km/h 85% 0.01in /  0.25mm 0.0 W/m2
02:47 55.5 °F /  13.1 °C 50.7 °F /  10.4 °C 29.69in /  1005.3hPa South 15.0mph /  24.1km/h 15.0mph /  24.1km/h 84% 0.01in /  0.25mm 0.0 W/m2
02:52 55.6 °F /  13.1 °C 50.8 °F /  10.4 °C 29.69in /  1005.3hPa SSW 12.7mph /  20.4km/h 12.7mph /  20.4km/h 84% 0.00in /  0mm 0.0 W/m2
02:57 56.0 °F /  13.3 °C 51.2 °F /  10.7 °C 29.69in /  1005.3hPa South 17.3mph /  27.8km/h 17.3mph /  27.8km/h 84% 0.00in /  0mm 0.0 W/m2
03:02 56.3 °F /  13.5 °C 51.2 °F /  10.7 °C 29.69in /  1005.3hPa SSE 19.6mph /  31.5km/h 19.6mph /  31.5km/h 83% 0.00in /  0mm 0.0 W/m2
03:07 56.6 °F /  13.7 °C 51.2 °F /  10.7 °C 29.69in /  1005.3hPa South 13.8mph /  22.2km/h 13.8mph /  22.2km/h 82% 0.00in /  0mm 0.0 W/m2
03:12 56.7 °F /  13.7 °C 51.3 °F /  10.7 °C 29.69in /  1005.3hPa SSE 11.5mph /  18.5km/h 11.5mph /  18.5km/h 82% 0.00in /  0mm 0.0 W/m2
03:17 56.6 °F /  13.7 °C 51.2 °F /  10.7 °C 29.69in /  1005.3hPa South 17.3mph /  27.8km/h 17.3mph /  27.8km/h 82% 0.00in /  0mm 0.0 W/m2
03:22 56.7 °F /  13.7 °C 51.3 °F /  10.7 °C 29.69in /  1005.3hPa South 15.0mph /  24.1km/h 15.0mph /  24.1km/h 82% 0.00in /  0mm 0.0 W/m2
03:27 56.9 °F /  13.8 °C 51.5 °F /  10.8 °C 29.69in /  1005.3hPa SSW 11.5mph /  18.5km/h 11.5mph /  18.5km/h 82% 0.00in /  0mm 0.0 W/m2
03:32 57.0 °F /  13.9 °C 51.6 °F /  10.9 °C 29.69in /  1005.3hPa SSE 15.0mph /  24.1km/h 15.0mph /  24.1km/h 82% 0.00in /  0mm 0.0 W/m2
03:37 57.3 °F /  14.1 °C 51.5 °F /  10.8 °C 29.69in /  1005.3hPa South 16.1mph /  25.9km/h 16.1mph /  25.9km/h 81% 0.00in /  0mm 0.0 W/m2
03:42 57.6 °F /  14.2 °C 51.8 °F /  11 °C 29.69in /  1005.3hPa SE 23.0mph /  37km/h 23.0mph /  37km/h 81% 0.00in /  0mm 0.0 W/m2
03:47 57.6 °F /  14.2 °C 51.8 °F /  11 °C 29.69in /  1005.3hPa SE 20.7mph /  33.3km/h 20.7mph /  33.3km/h 81% 0.00in /  0mm 0.0 W/m2
03:52 57.6 °F /  14.2 °C 51.8 °F /  11 °C 29.70in /  1005.6hPa SSW 18.4mph /  29.6km/h 18.4mph /  29.6km/h 81% 0.00in /  0mm 0.0 W/m2
03:57 57.4 °F /  14.1 °C 51.9 °F /  11.1 °C 29.70in /  1005.6hPa South 22.0mph /  35.4km/h 22.0mph /  35.4km/h 82% 0.00in /  0mm 0.0 W/m2
04:02 57.6 °F /  14.2 °C 52.1 °F /  11.2 °C 29.69in /  1005.3hPa South 17.3mph /  27.8km/h 17.3mph /  27.8km/h 82% 0.00in /  0mm 0.0 W/m2
04:07 57.6 °F /  14.2 °C 52.1 °F /  11.2 °C 29.69in /  1005.3hPa SSW 15.0mph /  24.1km/h 15.0mph /  24.1km/h 82% 0.00in /  0mm 0.0 W/m2
04:12 57.7 °F /  14.3 °C 52.2 °F /  11.2 °C 29.69in /  1005.3hPa South 17.3mph /  27.8km/h 17.3mph /  27.8km/h 82% 0.00in /  0mm 0.0 W/m2
04:17 57.8 °F /  14.3 °C 52.3 °F /  11.3 °C 29.69in /  1005.3hPa South 20.7mph /  33.3km/h 20.7mph /  33.3km/h 82% 0.00in /  0mm 0.0 W/m2
04:22 57.7 °F /  14.3 °C 52.2 °F /  11.2 °C 29.69in /  1005.3hPa SSE 10.4mph /  16.7km/h 10.4mph /  16.7km/h 82% 0.00in /  0mm 0.0 W/m2
04:27 57.6 °F /  14.2 °C 52.5 °F /  11.4 °C 29.69in /  1005.3hPa SSE 16.1mph /  25.9km/h 16.1mph /  25.9km/h 83% 0.00in /  0mm 0.0 W/m2
04:32 57.6 °F /  14.2 °C 52.5 °F /  11.4 °C 29.69in /  1005.3hPa SSW 12.7mph /  20.4km/h 12.7mph /  20.4km/h 83% 0.00in /  0mm 0.0 W/m2
04:37 57.7 °F /  14.3 °C 52.6 °F /  11.4 °C 29.69in /  1005.3hPa South 15.0mph /  24.1km/h 15.0mph /  24.1km/h 83% 0.00in /  0mm 0.0 W/m2
04:42 57.4 °F /  14.1 °C 52.6 °F /  11.4 °C 29.69in /  1005.3hPa South 15.0mph /  24.1km/h 15.0mph /  24.1km/h 84% 0.00in /  0mm 0.0 W/m2
04:47 57.3 °F /  14.1 °C 53.1 °F /  11.7 °C 29.69in /  1005.3hPa SSE 15.0mph /  24.1km/h 15.0mph /  24.1km/h 86% 0.01in /  0.25mm 0.0 W/m2
04:52 57.0 °F /  13.9 °C 53.2 °F /  11.8 °C 29.69in /  1005.3hPa South 8.1mph /  13km/h 8.1mph /  13km/h 87% 0.01in /  0.25mm 0.0 W/m2
04:57 57.3 °F /  14.1 °C 53.5 °F /  11.9 °C 29.70in /  1005.6hPa WSW 15.0mph /  24.1km/h 15.0mph /  24.1km/h 87% 0.01in /  0.25mm 0.0 W/m2
05:02 57.5 °F /  14.2 °C 53.3 °F /  11.8 °C 29.70in /  1005.6hPa West 18.4mph /  29.6km/h 18.4mph /  29.6km/h 86% 0.01in /  0.25mm 0.0 W/m2
05:07 57.9 °F /  14.4 °C 53.4 °F /  11.9 °C 29.70in /  1005.6hPa SW 21.9mph /  35.2km/h 21.9mph /  35.2km/h 85% 0.01in /  0.25mm 0.0 W/m2
05:12 58.4 °F /  14.7 °C 53.6 °F /  12 °C 29.71in /  1006hPa WSW 9.2mph /  14.8km/h 9.2mph /  14.8km/h 84% 0.01in /  0.25mm 0.0 W/m2
05:17 58.7 °F /  14.8 °C 53.5 °F /  11.9 °C 29.71in /  1006hPa SSE 19.6mph /  31.5km/h 19.6mph /  31.5km/h 83% 0.01in /  0.25mm 0.0 W/m2
05:22 58.8 °F /  14.9 °C 53.3 °F /  11.8 °C 29.71in /  1006hPa SW 23.0mph /  37km/h 23.0mph /  37km/h 82% 0.01in /  0.25mm 0.0 W/m2
05:27 58.8 °F /  14.9 °C 53.3 °F /  11.8 °C 29.71in /  1006hPa SSE 12.7mph /  20.4km/h 12.7mph /  20.4km/h 82% 0.01in /  0.25mm 0.0 W/m2
05:32 58.6 °F /  14.8 °C 53.1 °F /  11.7 °C 29.72in /  1006.3hPa SSE 17.3mph /  27.8km/h 17.3mph /  27.8km/h 82% 0.01in /  0.25mm 0.0 W/m2
05:37 58.1 °F /  14.5 °C 53.3 °F /  11.8 °C 29.72in /  1006.3hPa SW 12.7mph /  20.4km/h 12.7mph /  20.4km/h 84% 0.01in /  0.25mm 0.0 W/m2
05:42 58.0 °F /  14.4 °C 53.2 °F /  11.8 °C 29.72in /  1006.3hPa SSE 11.5mph /  18.5km/h 11.5mph /  18.5km/h 84% 0.01in /  0.25mm 0.0 W/m2
05:47 58.1 °F /  14.5 °C 53.3 °F /  11.8 °C 29.72in /  1006.3hPa SW 11.5mph /  18.5km/h 11.5mph /  18.5km/h 84% 0.00in /  0mm 0.0 W/m2
05:52 58.2 °F /  14.6 °C 53.4 °F /  11.9 °C 29.72in /  1006.3hPa South 10.4mph /  16.7km/h 10.4mph /  16.7km/h 84% 0.00in /  0mm 0.0 W/m2
05:57 58.2 °F /  14.6 °C 53.4 °F /  11.9 °C 29.72in /  1006.3hPa South 9.2mph /  14.8km/h 9.2mph /  14.8km/h 84% 0.00in /  0mm 0.0 W/m2
06:02 58.3 °F /  14.6 °C 53.5 °F /  11.9 °C 29.72in /  1006.3hPa SW 14.0mph /  22.5km/h 14.0mph /  22.5km/h 84% 0.00in /  0mm 0.0 W/m2
06:07 58.4 °F /  14.7 °C 53.3 °F /  11.8 °C 29.73in /  1006.7hPa SW 12.7mph /  20.4km/h 12.7mph /  20.4km/h 83% 0.00in /  0mm 0.0 W/m2
06:12 57.9 °F /  14.4 °C 53.4 °F /  11.9 °C 29.73in /  1006.7hPa ENE 10.4mph /  16.7km/h 10.4mph /  16.7km/h 85% 0.01in /  0.25mm 0.0 W/m2
06:17 57.4 °F /  14.1 °C 53.2 °F /  11.8 °C 29.73in /  1006.7hPa WSW 8.1mph /  13km/h 8.1mph /  13km/h 86% 0.01in /  0.25mm 0.0 W/m2
06:22 57.1 °F /  13.9 °C 53.6 °F /  12 °C 29.73in /  1006.7hPa South 19.6mph /  31.5km/h 19.6mph /  31.5km/h 88% 0.01in /  0.25mm 0.0 W/m2
06:27 56.9 °F /  13.8 °C 53.4 °F /  11.9 °C 29.74in /  1007hPa WSW 9.2mph /  14.8km/h 9.2mph /  14.8km/h 88% 0.01in /  0.25mm 0.0 W/m2
06:33 55.6 °F /  13.1 °C 51.2 °F /  10.7 °C 29.74in /  1007hPa SW 6.9mph /  11.1km/h 6.9mph /  11.1km/h 85% 0.01in /  0.25mm 0.0 W/m2
06:38 54.9 °F /  12.7 °C 52.0 °F /  11.1 °C 29.74in /  1007hPa WSW 6.9mph /  11.1km/h 6.9mph /  11.1km/h 90% 0.01in /  0.25mm 0.0 W/m2
06:43 55.2 °F /  12.9 °C 52.6 °F /  11.4 °C 29.74in /  1007hPa SW 5.0mph /  8km/h 5.0mph /  8km/h 91% 0.01in /  0.25mm 0.0 W/m2
06:48 55.8 °F /  13.2 °C 52.9 °F /  11.6 °C 29.74in /  1007hPa SSW 13.0mph /  20.9km/h 13.0mph /  20.9km/h 90% 0.01in /  0.25mm 0.0 W/m2
06:53 56.3 °F /  13.5 °C 52.8 °F /  11.6 °C 29.75in /  1007.3hPa South 11.0mph /  17.7km/h 11.0mph /  17.7km/h 88% 0.01in /  0.25mm 0.0 W/m2
06:58 56.7 °F /  13.7 °C 52.6 °F /  11.4 °C 29.75in /  1007.3hPa SW 10.4mph /  16.7km/h 10.4mph /  16.7km/h 86% 0.01in /  0.25mm 0.0 W/m2
07:03 57.2 °F /  14 °C 52.7 °F /  11.5 °C 29.75in /  1007.3hPa SSW 6.0mph /  9.7km/h 6.0mph /  9.7km/h 85% 0.01in /  0.25mm 0.0 W/m2
07:08 57.5 °F /  14.2 °C 52.7 °F /  11.5 °C 29.75in /  1007.3hPa SSW 6.9mph /  11.1km/h 6.9mph /  11.1km/h 84% 0.01in /  0.25mm 0.0 W/m2
07:13 57.6 °F /  14.2 °C 52.8 °F /  11.6 °C 29.75in /  1007.3hPa SW 7.0mph /  11.3km/h 7.5mph /  12.1km/h 84% 0.00in /  0mm 0.0 W/m2
07:18 57.8 °F /  14.3 °C 53.0 °F /  11.7 °C 29.75in /  1007.3hPa SSW 17.3mph /  27.8km/h 17.3mph /  27.8km/h 84% 0.00in /  0mm 0.0 W/m2
07:23 57.8 °F /  14.3 °C 52.7 °F /  11.5 °C 29.76in /  1007.7hPa WSW 7.0mph /  11.3km/h 7.0mph /  11.3km/h 83% 0.00in /  0mm 0.0 W/m2
07:28 56.9 °F /  13.8 °C 51.8 °F /  11 °C 29.76in /  1007.7hPa WSW 16.1mph /  25.9km/h 16.1mph /  25.9km/h 83% 0.00in /  0mm 0.0 W/m2
07:33 56.2 °F /  13.4 °C 51.4 °F /  10.8 °C 29.76in /  1007.7hPa South 10.4mph /  16.7km/h 10.4mph /  16.7km/h 84% 0.00in /  0mm 0.0 W/m2
07:38 55.7 °F /  13.2 °C 51.6 °F /  10.9 °C 29.76in /  1007.7hPa West 11.5mph /  18.5km/h 11.5mph /  18.5km/h 86% 0.00in /  0mm 0.0 W/m2
07:43 55.6 °F /  13.1 °C 52.1 °F /  11.2 °C 29.77in /  1008hPa SSW 13.8mph /  22.2km/h 13.8mph /  22.2km/h 88% 0.00in /  0mm 0.0 W/m2
07:48 55.8 °F /  13.2 °C 52.6 °F /  11.4 °C 29.77in /  1008hPa WSW 18.4mph /  29.6km/h 18.4mph /  29.6km/h 89% 0.00in /  0mm 0.0 W/m2
07:53 56.0 °F /  13.3 °C 52.8 °F /  11.6 °C 29.77in /  1008hPa SW 17.3mph /  27.8km/h 17.3mph /  27.8km/h 89% 0.00in /  0mm 0.0 W/m2
07:58 56.1 °F /  13.4 °C 52.9 °F /  11.6 °C 29.77in /  1008hPa South 17.3mph /  27.8km/h 17.3mph /  27.8km/h 89% 0.00in /  0mm 0.0 W/m2
08:03 55.9 °F /  13.3 °C 52.4 °F /  11.3 °C 29.77in /  1008hPa West 12.7mph /  20.4km/h 12.7mph /  20.4km/h 88% 0.00in /  0mm 0.0 W/m2
08:08 54.8 °F /  12.7 °C 51.3 °F /  10.7 °C 29.78in /  1008.4hPa West 26.0mph /  41.8km/h 26.0mph /  41.8km/h 88% 0.00in /  0mm 0.0 W/m2
08:13 52.5 °F /  11.4 °C 49.0 °F /  9.4 °C 29.78in /  1008.4hPa West 15.0mph /  24.1km/h 15.0mph /  24.1km/h 88% 0.00in /  0mm 0.0 W/m2
08:18 50.6 °F /  10.3 °C 47.8 °F /  8.8 °C 29.79in /  1008.7hPa WSW 11.5mph /  18.5km/h 11.5mph /  18.5km/h 90% 0.00in /  0mm 0.0 W/m2
08:23 49.4 °F /  9.7 °C 46.9 °F /  8.3 °C 29.80in /  1009hPa South 10.4mph /  16.7km/h 10.4mph /  16.7km/h 91% 0.00in /  0mm 0.0 W/m2
08:28 48.5 °F /  9.2 °C 46.6 °F /  8.1 °C 29.80in /  1009hPa West 8.1mph /  13km/h 8.1mph /  13km/h 93% 0.00in /  0mm 0.0 W/m2
08:33 48.0 °F /  8.9 °C 46.1 °F /  7.8 °C 29.80in /  1009hPa South 10.4mph /  16.7km/h 10.4mph /  16.7km/h 93% 0.00in /  0mm 0.0 W/m2
08:38 47.4 °F /  8.6 °C 45.8 °F /  7.7 °C 29.80in /  1009hPa West 8.1mph /  13km/h 8.1mph /  13km/h 94% 0.00in /  0mm 0.0 W/m2
08:43 47.1 °F /  8.4 °C 45.5 °F /  7.5 °C 29.81in /  1009.4hPa South 10.4mph /  16.7km/h 10.4mph /  16.7km/h 94% 0.00in /  0mm 0.0 W/m2
08:48 46.7 °F /  8.2 °C 45.1 °F /  7.3 °C 29.81in /  1009.4hPa SW 9.2mph /  14.8km/h 9.2mph /  14.8km/h 94% 0.00in /  0mm 0.0 W/m2
08:53 46.2 °F /  7.9 °C 44.8 °F /  7.1 °C 29.81in /  1009.4hPa West 6.9mph /  11.1km/h 6.9mph /  11.1km/h 95% 0.00in /  0mm 0.0 W/m2
08:58 45.9 °F /  7.7 °C 44.5 °F /  6.9 °C 29.82in /  1009.7hPa South 6.9mph /  11.1km/h 6.9mph /  11.1km/h 95% 0.00in /  0mm 0.0 W/m2
09:03 45.2 °F /  7.3 °C 43.9 °F /  6.6 °C 29.82in /  1009.7hPa West 12.7mph /  20.4km/h 12.7mph /  20.4km/h 95% 0.00in /  0mm 0.0 W/m2
09:08 44.5 °F /  6.9 °C 43.2 °F /  6.2 °C 29.82in /  1009.7hPa SW 5.0mph /  8km/h 5.0mph /  8km/h 95% 0.00in /  0mm 0.0 W/m2
09:13 44.1 °F /  6.7 °C 42.8 °F /  6 °C 29.82in /  1009.7hPa WSW 6.9mph /  11.1km/h 6.9mph /  11.1km/h 95% 0.00in /  0mm 0.0 W/m2
09:18 43.7 °F /  6.5 °C 42.4 °F /  5.8 °C 29.82in /  1009.7hPa WSW 3.5mph /  5.6km/h 3.5mph /  5.6km/h 95% 0.00in /  0mm 0.0 W/m2
09:23 43.4 °F /  6.3 °C 42.1 °F /  5.6 °C 29.83in /  1010hPa SW 8.1mph /  13km/h 8.1mph /  13km/h 95% 0.00in /  0mm 0.0 W/m2
09:28 43.3 °F /  6.3 °C 42.0 °F /  5.6 °C 29.82in /  1009.7hPa South 4.6mph /  7.4km/h 4.6mph /  7.4km/h 95% 0.00in /  0mm 0.0 W/m2
09:33 43.3 °F /  6.3 °C 42.2 °F /  5.7 °C 29.83in /  1010hPa SW 5.0mph /  8km/h 5.0mph /  8km/h 96% 0.00in /  0mm 0.0 W/m2
09:38 43.3 °F /  6.3 °C 42.2 °F /  5.7 °C 29.82in /  1009.7hPa SSE 8.1mph /  13km/h 8.1mph /  13km/h 96% 0.00in /  0mm 0.0 W/m2
09:43 43.2 °F /  6.2 °C 42.1 °F /  5.6 °C 29.84in /  1010.4hPa South 5.8mph /  9.3km/h 5.8mph /  9.3km/h 96% 0.00in /  0mm 0.0 W/m2
09:48 43.1 °F /  6.2 °C 42.0 °F /  5.6 °C 29.84in /  1010.4hPa South 11.5mph /  18.5km/h 11.5mph /  18.5km/h 96% 0.00in /  0mm 0.0 W/m2
09:53 42.8 °F /  6 °C 41.7 °F /  5.4 °C 29.84in /  1010.4hPa SSW 8.1mph /  13km/h 8.1mph /  13km/h 96% 0.00in /  0mm 0.0 W/m2
09:58 42.5 °F /  5.8 °C 41.4 °F /  5.2 °C 29.84in /  1010.4hPa SSW 8.1mph /  13km/h 8.1mph /  13km/h 96% 0.00in /  0mm 0.0 W/m2
10:03 42.5 °F /  5.8 °C 41.4 °F /  5.2 °C 29.84in /  1010.4hPa South 8.1mph /  13km/h 8.1mph /  13km/h 96% 0.00in /  0mm 0.0 W/m2
10:08 42.3 °F /  5.7 °C 41.2 °F /  5.1 °C 29.83in /  1010hPa South 7.0mph /  11.3km/h 7.0mph /  11.3km/h 96% 0.00in /  0mm 0.0 W/m2
10:13 42.3 °F /  5.7 °C 41.2 °F /  5.1 °C 29.83in /  1010hPa SSE 11.5mph /  18.5km/h 11.5mph /  18.5km/h 96% 0.00in /  0mm 0.0 W/m2
10:18 42.4 °F /  5.8 °C 41.3 °F /  5.2 °C 29.84in /  1010.4hPa SW 4.6mph /  7.4km/h 4.6mph /  7.4km/h 96% 0.00in /  0mm 0.0 W/m2
10:23 42.4 °F /  5.8 °C 41.6 °F /  5.3 °C 29.85in /  1010.7hPa SSW 7.0mph /  11.3km/h 7.0mph /  11.3km/h 97% 0.00in /  0mm 0.0 W/m2
10:28 42.5 °F /  5.8 °C 41.7 °F /  5.4 °C 29.85in /  1010.7hPa South 5.8mph /  9.3km/h 5.8mph /  9.3km/h 97% 0.00in /  0mm 0.0 W/m2
10:33 42.8 °F /  6 °C 42.0 °F /  5.6 °C 29.84in /  1010.4hPa South 5.8mph /  9.3km/h 5.8mph /  9.3km/h 97% 0.00in /  0mm 0.0 W/m2
10:38 43.1 °F /  6.2 °C 42.3 °F /  5.7 °C 29.84in /  1010.4hPa South 6.9mph /  11.1km/h 6.9mph /  11.1km/h 97% 0.00in /  0mm 0.0 W/m2
10:43 43.3 °F /  6.3 °C 42.5 °F /  5.8 °C 29.85in /  1010.7hPa South 2.3mph /  3.7km/h 2.3mph /  3.7km/h 97% 0.00in /  0mm 0.0 W/m2
10:48 43.8 °F /  6.6 °C 43.0 °F /  6.1 °C 29.84in /  1010.4hPa South 6.9mph /  11.1km/h 6.9mph /  11.1km/h 97% 0.00in /  0mm 0.0 W/m2
10:53 44.2 °F /  6.8 °C 43.4 °F /  6.3 °C 29.83in /  1010hPa South 4.0mph /  6.4km/h 4.0mph /  6.4km/h 97% 0.00in /  0mm 0.0 W/m2
10:58 44.7 °F /  7.1 °C 43.9 °F /  6.6 °C 29.84in /  1010.4hPa South 3.5mph /  5.6km/h 3.5mph /  5.6km/h 97% 0.00in /  0mm 0.0 W/m2
11:03 45.0 °F /  7.2 °C 44.2 °F /  6.8 °C 29.84in /  1010.4hPa South 5.8mph /  9.3km/h 5.8mph /  9.3km/h 97% 0.00in /  0mm 0.0 W/m2
11:08 45.2 °F /  7.3 °C 44.4 °F /  6.9 °C 29.83in /  1010hPa SSW 6.0mph /  9.7km/h 6.0mph /  9.7km/h 97% 0.00in /  0mm 0.0 W/m2
11:13 45.3 °F /  7.4 °C 44.5 °F /  6.9 °C 29.83in /  1010hPa South 5.0mph /  8km/h 5.0mph /  8km/h 97% 0.00in /  0mm 0.0 W/m2
11:18 45.4 °F /  7.4 °C 44.6 °F /  7 °C 29.83in /  1010hPa SSW 4.6mph /  7.4km/h 4.6mph /  7.4km/h 97% 0.00in /  0mm 0.0 W/m2
11:23 45.5 °F /  7.5 °C 44.7 °F /  7.1 °C 29.83in /  1010hPa SW 2.3mph /  3.7km/h 2.3mph /  3.7km/h 97% 0.00in /  0mm 0.0 W/m2
11:28 45.5 °F /  7.5 °C 44.7 °F /  7.1 °C 29.82in /  1009.7hPa West 1.2mph /  1.9km/h 1.2mph /  1.9km/h 97% 0.00in /  0mm 0.0 W/m2
11:33 45.6 °F /  7.6 °C 44.8 °F /  7.1 °C 29.81in /  1009.4hPa West 2.3mph /  3.7km/h 2.3mph /  3.7km/h 97% 0.00in /  0mm 0.0 W/m2
11:38 45.6 °F /  7.6 °C 44.8 °F /  7.1 °C 29.81in /  1009.4hPa West 3.5mph /  5.6km/h 3.5mph /  5.6km/h 97% 0.00in /  0mm 0.0 W/m2
11:43 45.5 °F /  7.5 °C 44.7 °F /  7.1 °C 29.81in /  1009.4hPa West 4.0mph /  6.4km/h 4.0mph /  6.4km/h 97% 0.00in /  0mm 0.0 W/m2
11:48 45.3 °F /  7.4 °C 44.5 °F /  6.9 °C 29.81in /  1009.4hPa West 4.0mph /  6.4km/h 4.0mph /  6.4km/h 97% 0.00in /  0mm 0.0 W/m2
11:53 45.0 °F /  7.2 °C 44.2 °F /  6.8 °C 29.81in /  1009.4hPa West 3.5mph /  5.6km/h 3.5mph /  5.6km/h 97% 0.00in /  0mm 0.0 W/m2
11:58 44.7 °F /  7.1 °C 43.9 °F /  6.6 °C 29.83in /  1010hPa WSW 5.8mph /  9.3km/h 5.8mph /  9.3km/h 97% 0.01in /  0.25mm 0.0 W/m2
12:03 44.6 °F /  7 °C 43.8 °F /  6.6 °C 29.81in /  1009.4hPa West 4.0mph /  6.4km/h 4.0mph /  6.4km/h 97% 0.01in /  0.25mm 0.0 W/m2
12:08 44.3 °F /  6.8 °C 43.5 °F /  6.4 °C 29.81in /  1009.4hPa West 4.6mph /  7.4km/h 4.6mph /  7.4km/h 97% 0.05in /  1.27mm 0.0 W/m2
12:13 44.0 °F /  6.7 °C 43.2 °F /  6.2 °C 29.82in /  1009.7hPa WNW 8.1mph /  13km/h 8.1mph /  13km/h 97% 0.08in /  2.03mm 0.0 W/m2
12:18 43.8 °F /  6.6 °C 43.0 °F /  6.1 °C 29.82in /  1009.7hPa WSW 2.3mph /  3.7km/h 2.3mph /  3.7km/h 97% 0.11in /  2.79mm 0.0 W/m2
12:23 43.4 °F /  6.3 °C 42.6 °F /  5.9 °C 29.80in /  1009hPa WSW 3.5mph /  5.6km/h 3.5mph /  5.6km/h 97% 0.14in /  3.56mm 0.0 W/m2
12:28 43.2 °F /  6.2 °C 42.4 °F /  5.8 °C 29.81in /  1009.4hPa South 4.6mph /  7.4km/h 4.6mph /  7.4km/h 97% 0.17in /  4.32mm 0.0 W/m2
12:33 42.9 °F /  6.1 °C 42.1 °F /  5.6 °C 29.81in /  1009.4hPa West 4.6mph /  7.4km/h 4.6mph /  7.4km/h 97% 0.22in /  5.59mm 0.0 W/m2
12:38 42.5 °F /  5.8 °C 41.7 °F /  5.4 °C 29.82in /  1009.7hPa WSW 5.8mph /  9.3km/h 5.8mph /  9.3km/h 97% 0.25in /  6.35mm 0.0 W/m2
12:43 42.1 °F /  5.6 °C 41.0 °F /  5 °C 29.81in /  1009.4hPa West 4.6mph /  7.4km/h 4.6mph /  7.4km/h 96% 0.27in /  6.86mm 0.0 W/m2
12:48 42.0 °F /  5.6 °C 41.2 °F /  5.1 °C 29.83in /  1010hPa West 4.6mph /  7.4km/h 4.6mph /  7.4km/h 97% 0.29in /  7.37mm 0.0 W/m2
12:53 41.9 °F /  5.5 °C 41.1 °F /  5.1 °C 29.83in /  1010hPa West 11.5mph /  18.5km/h 11.5mph /  18.5km/h 97% 0.30in /  7.62mm 0.0 W/m2
12:58 41.7 °F /  5.4 °C 40.9 °F /  4.9 °C 29.83in /  1010hPa WNW 6.9mph /  11.1km/h 6.9mph /  11.1km/h 97% 0.30in /  7.62mm 0.0 W/m2
13:03 41.6 °F /  5.3 °C 40.8 °F /  4.9 °C 29.83in /  1010hPa WNW 4.6mph /  7.4km/h 4.6mph /  7.4km/h 97% 0.30in /  7.62mm 0.0 W/m2
13:08 41.7 °F /  5.4 °C 40.9 °F /  4.9 °C 29.82in /  1009.7hPa WNW 4.0mph /  6.4km/h 4.0mph /  6.4km/h 97% 0.26in /  6.6mm 0.0 W/m2
13:13 41.7 °F /  5.4 °C 40.9 °F /  4.9 °C 29.82in /  1009.7hPa WNW 6.9mph /  11.1km/h 6.9mph /  11.1km/h 97% 0.23in /  5.84mm 0.0 W/m2
13:18 41.5 °F /  5.3 °C 40.7 °F /  4.8 °C 29.82in /  1009.7hPa NW 5.8mph /  9.3km/h 5.8mph /  9.3km/h 97% 0.20in /  5.08mm 0.0 W/m2
13:23 41.4 °F /  5.2 °C 40.6 °F /  4.8 °C 29.82in /  1009.7hPa NW 4.0mph /  6.4km/h 4.0mph /  6.4km/h 97% 0.17in /  4.32mm 0.0 W/m2
13:28 41.3 °F /  5.2 °C 40.5 °F /  4.7 °C 29.82in /  1009.7hPa North 6.9mph /  11.1km/h 6.9mph /  11.1km/h 97% 0.14in /  3.56mm 0.0 W/m2
13:33 41.0 °F /  5 °C 40.2 °F /  4.6 °C 29.82in /  1009.7hPa NNE 6.9mph /  11.1km/h 6.9mph /  11.1km/h 97% 0.09in /  2.29mm 0.0 W/m2
13:38 40.8 °F /  4.9 °C 39.7 °F /  4.3 °C 29.84in /  1010.4hPa WNW 2.3mph /  3.7km/h 2.3mph /  3.7km/h 96% 0.06in /  1.52mm 0.0 W/m2
13:43 40.8 °F /  4.9 °C 39.7 °F /  4.3 °C 29.83in /  1010hPa NNW 2.3mph /  3.7km/h 2.3mph /  3.7km/h 96% 0.05in /  1.27mm 0.0 W/m2
13:48 40.7 °F /  4.8 °C 39.6 °F /  4.2 °C 29.78in /  1008.4hPa ESE 3.5mph /  5.6km/h 3.5mph /  5.6km/h 96% 0.04in /  1.02mm 0.0 W/m2
13:53 40.6 °F /  4.8 °C 39.5 °F /  4.2 °C 29.81in /  1009.4hPa SE 2.3mph /  3.7km/h 2.3mph /  3.7km/h 96% 0.04in /  1.02mm 0.0 W/m2
13:58 40.7 °F /  4.8 °C 39.9 °F /  4.4 °C 29.82in /  1009.7hPa SE 1.2mph /  1.9km/h   97% 0.03in /  0.76mm 0.0 W/m2
14:03 40.9 °F /  4.9 °C 40.1 °F /  4.5 °C 29.83in /  1010hPa SE 1.0mph /  1.6km/h 1.0mph /  1.6km/h 97% 0.04in /  1.02mm 0.0 W/m2
14:08 41.0 °F /  5 °C 40.2 °F /  4.6 °C 29.83in /  1010hPa SE 2.3mph /  3.7km/h 2.3mph /  3.7km/h 97% 0.04in /  1.02mm 0.0 W/m2
14:13 41.1 °F /  5.1 °C 40.3 °F /  4.6 °C 29.84in /  1010.4hPa SE 2.3mph /  3.7km/h 2.3mph /  3.7km/h 97% 0.04in /  1.02mm 0.0 W/m2
14:14 41.9 °F /  5.5 °C 41.1 °F /  5.1 °C 29.84in /  1010.4hPa SSE 2.0mph /  3.2km/h 4.0mph /  6.4km/h 97% 0.00in /  0mm 0.0 W/m2
14:18 41.3 °F /  5.2 °C 40.5 °F /  4.7 °C 29.84in /  1010.4hPa South 3.0mph /  4.8km/h 3.0mph /  4.8km/h 97% 0.04in /  1.02mm 0.0 W/m2
14:19 42.0 °F /  5.6 °C 41.2 °F /  5.1 °C 29.85in /  1010.7hPa South 2.0mph /  3.2km/h 4.0mph /  6.4km/h 97% 0.00in /  0mm 0.0 W/m2
14:23 41.5 °F /  5.3 °C 40.7 °F /  4.8 °C 29.83in /  1010hPa SSE 6.0mph /  9.7km/h 6.0mph /  9.7km/h 97% 0.04in /  1.02mm 0.0 W/m2
14:24 42.0 °F /  5.6 °C 41.2 °F /  5.1 °C 29.85in /  1010.7hPa Calm   4.0mph /  6.4km/h 97% 0.00in /  0mm 0.0 W/m2
14:28 41.7 °F /  5.4 °C 40.9 °F /  4.9 °C 29.80in /  1009hPa ENE 5.0mph /  8km/h 5.0mph /  8km/h 97% 0.04in /  1.02mm 0.0 W/m2
14:29 42.0 °F /  5.6 °C 41.2 °F /  5.1 °C 29.86in /  1011.1hPa SSW 1.0mph /  1.6km/h 4.0mph /  6.4km/h 97% 0.00in /  0mm 0.0 W/m2
14:33 41.9 °F /  5.5 °C 41.1 °F /  5.1 °C 29.83in /  1010hPa WNW 3.5mph /  5.6km/h 3.5mph /  5.6km/h 97% 0.04in /  1.02mm 0.0 W/m2
14:34 42.1 °F /  5.6 °C 41.3 °F /  5.2 °C 29.87in /  1011.4hPa SSW 2.0mph /  3.2km/h 4.0mph /  6.4km/h 97% 0.00in /  0mm 0.0 W/m2
14:38 42.0 °F /  5.6 °C 41.2 °F /  5.1 °C 29.83in /  1010hPa SW 1.2mph /  1.9km/h   97% 0.04in /  1.02mm 0.0 W/m2
14:39 42.1 °F /  5.6 °C 41.3 °F /  5.2 °C 29.87in /  1011.4hPa WSW 1.0mph /  1.6km/h 4.0mph /  6.4km/h 97% 0.00in /  0mm 0.0 W/m2
14:43 42.0 °F /  5.6 °C 41.2 °F /  5.1 °C 29.83in /  1010hPa WSW 2.3mph /  3.7km/h 2.3mph /  3.7km/h 97% 0.03in /  0.76mm 0.0 W/m2
14:44 42.0 °F /  5.6 °C 41.2 °F /  5.1 °C 29.88in /  1011.7hPa West 5.0mph /  8km/h 8.0mph /  12.9km/h 97% 0.00in /  0mm 0.0 W/m2
14:48 42.0 °F /  5.6 °C 41.2 °F /  5.1 °C 29.84in /  1010.4hPa WSW 3.0mph /  4.8km/h 3.0mph /  4.8km/h 97% 0.02in /  0.51mm 0.0 W/m2
14:49 41.6 °F /  5.3 °C 40.5 °F /  4.7 °C 29.86in /  1011.1hPa WSW 3.0mph /  4.8km/h 6.0mph /  9.7km/h 96% 0.00in /  0mm 0.0 W/m2
14:53 42.0 °F /  5.6 °C 41.2 °F /  5.1 °C 29.85in /  1010.7hPa West 3.5mph /  5.6km/h 3.5mph /  5.6km/h 97% 0.01in /  0.25mm 0.0 W/m2
14:54 41.1 °F /  5.1 °C 40.0 °F /  4.4 °C 29.86in /  1011.1hPa WSW 3.0mph /  4.8km/h 5.0mph /  8km/h 96% 0.00in /  0mm 0.0 W/m2
14:58 42.0 °F /  5.6 °C 41.2 °F /  5.1 °C 29.85in /  1010.7hPa South 4.6mph /  7.4km/h 4.6mph /  7.4km/h 97% 0.01in /  0.25mm 0.0 W/m2
14:59 40.6 °F /  4.8 °C 39.5 °F /  4.2 °C 29.88in /  1011.7hPa WSW 3.0mph /  4.8km/h 7.0mph /  11.3km/h 96% 0.00in /  0mm 0.0 W/m2
15:03 41.9 °F /  5.5 °C 41.1 °F /  5.1 °C 29.85in /  1010.7hPa South 4.6mph /  7.4km/h 4.6mph /  7.4km/h 97% 0.00in /  0mm 0.0 W/m2
15:04 40.1 °F /  4.5 °C 39.1 °F /  3.9 °C 29.89in /  1012.1hPa WSW 6.0mph /  9.7km/h 8.0mph /  12.9km/h 96% 0.00in /  0mm 0.0 W/m2
15:08 41.9 °F /  5.5 °C 41.1 °F /  5.1 °C 29.84in /  1010.4hPa SSE 4.6mph /  7.4km/h 4.6mph /  7.4km/h 97% 0.00in /  0mm 0.0 W/m2
16:12 39.3 °F /  4.1 °C 38.3 °F /  3.5 °C 29.90in /  1012.4hPa WSW 6.0mph /  9.7km/h 6.0mph /  9.7km/h 96% 0.00in /  0mm 0.0 W/m2
16:17 39.0 °F /  3.9 °C 38.0 °F /  3.3 °C 29.90in /  1012.4hPa West 8.1mph /  13km/h 8.1mph /  13km/h 96% 0.00in /  0mm 0.0 W/m2
16:22 38.7 °F /  3.7 °C 37.7 °F /  3.2 °C 29.90in /  1012.4hPa WSW 8.0mph /  12.9km/h 8.0mph /  12.9km/h 96% 0.00in /  0mm 0.0 W/m2
16:27 38.6 °F /  3.7 °C 37.6 °F /  3.1 °C 29.90in /  1012.4hPa WSW 8.1mph /  13km/h 8.1mph /  13km/h 96% 0.00in /  0mm 0.0 W/m2
16:32 38.4 °F /  3.6 °C 37.4 °F /  3 °C 29.91in /  1012.8hPa WSW 8.1mph /  13km/h 8.1mph /  13km/h 96% 0.00in /  0mm 0.0 W/m2
16:37 38.3 °F /  3.5 °C 37.3 °F /  2.9 °C 29.92in /  1013.1hPa WSW 4.6mph /  7.4km/h 4.6mph /  7.4km/h 96% 0.00in /  0mm 0.0 W/m2
16:42 38.2 °F /  3.4 °C 37.2 °F /  2.9 °C 29.93in /  1013.4hPa South 6.9mph /  11.1km/h 6.9mph /  11.1km/h 96% 0.00in /  0mm 0.0 W/m2
16:47 37.9 °F /  3.3 °C 36.9 °F /  2.7 °C 29.93in /  1013.4hPa West 10.4mph /  16.7km/h 10.4mph /  16.7km/h 96% 0.00in /  0mm 0.0 W/m2
16:52 37.7 °F /  3.2 °C 36.7 °F /  2.6 °C 29.93in /  1013.4hPa SSW 10.4mph /  16.7km/h 10.4mph /  16.7km/h 96% 0.00in /  0mm 0.0 W/m2
16:57 37.5 °F /  3.1 °C 36.5 °F /  2.5 °C 29.95in /  1014.1hPa WSW 9.2mph /  14.8km/h 9.2mph /  14.8km/h 96% 0.00in /  0mm 0.0 W/m2
17:02 37.4 °F /  3 °C 36.4 °F /  2.4 °C 29.95in /  1014.1hPa SSW 6.9mph /  11.1km/h 6.9mph /  11.1km/h 96% 0.00in /  0mm 0.0 W/m2
17:07 37.3 °F /  2.9 °C 36.3 °F /  2.4 °C 29.94in /  1013.8hPa WSW 6.9mph /  11.1km/h 6.9mph /  11.1km/h 96% 0.00in /  0mm 0.0 W/m2
17:12 37.1 °F /  2.8 °C 36.1 °F /  2.3 °C 29.96in /  1014.4hPa WSW 9.2mph /  14.8km/h 9.2mph /  14.8km/h 96% 0.00in /  0mm 0.0 W/m2
17:17 37.2 °F /  2.9 °C 36.4 °F /  2.4 °C 29.96in /  1014.4hPa SW 8.1mph /  13km/h 8.1mph /  13km/h 97% 0.00in /  0mm 0.0 W/m2
17:22 37.2 °F /  2.9 °C 36.4 °F /  2.4 °C 29.97in /  1014.8hPa WNW 4.6mph /  7.4km/h 4.6mph /  7.4km/h 97% 0.00in /  0mm 0.0 W/m2
17:27 37.2 °F /  2.9 °C 36.4 °F /  2.4 °C 29.97in /  1014.8hPa WSW 9.2mph /  14.8km/h 9.2mph /  14.8km/h 97% 0.00in /  0mm 0.0 W/m2
17:32 37.1 °F /  2.8 °C 36.3 °F /  2.4 °C 29.97in /  1014.8hPa WSW 9.2mph /  14.8km/h 9.2mph /  14.8km/h 97% 0.00in /  0mm 0.0 W/m2
17:38 37.0 °F /  2.8 °C 36.0 °F /  2.2 °C 29.97in /  1014.8hPa SW 8.1mph /  13km/h 8.1mph /  13km/h 96% 0.00in /  0mm 0.0 W/m2
17:42 37.0 °F /  2.8 °C 36.0 °F /  2.2 °C 29.98in /  1015.1hPa SSW 5.8mph /  9.3km/h 5.8mph /  9.3km/h 96% 0.00in /  0mm 0.0 W/m2
17:48 37.0 °F /  2.8 °C 36.0 °F /  2.2 °C 29.99in /  1015.5hPa West 8.1mph /  13km/h 8.1mph /  13km/h 96% 0.00in /  0mm 0.0 W/m2
17:53 37.0 °F /  2.8 °C 36.0 °F /  2.2 °C 29.99in /  1015.5hPa SW 10.4mph /  16.7km/h 10.4mph /  16.7km/h 96% 0.00in /  0mm 0.0 W/m2
17:58 37.0 °F /  2.8 °C 36.0 °F /  2.2 °C 30.00in /  1015.8hPa West 10.4mph /  16.7km/h 10.4mph /  16.7km/h 96% 0.00in /  0mm 0.0 W/m2
18:03 36.9 °F /  2.7 °C 35.9 °F /  2.2 °C 30.00in /  1015.8hPa WSW 6.9mph /  11.1km/h 6.9mph /  11.1km/h 96% 0.00in /  0mm 0.0 W/m2
18:08 36.9 °F /  2.7 °C 35.9 °F /  2.2 °C 30.00in /  1015.8hPa West 11.5mph /  18.5km/h 11.5mph /  18.5km/h 96% 0.00in /  0mm 0.0 W/m2
18:13 36.9 °F /  2.7 °C 35.9 °F /  2.2 °C 30.01in /  1016.1hPa SSW 8.1mph /  13km/h 8.1mph /  13km/h 96% 0.00in /  0mm 0.0 W/m2
18:18 36.9 °F /  2.7 °C 35.9 °F /  2.2 °C 30.02in /  1016.5hPa South 8.1mph /  13km/h 8.1mph /  13km/h 96% 0.00in /  0mm 0.0 W/m2
18:23 36.9 °F /  2.7 °C 35.9 °F /  2.2 °C 30.02in /  1016.5hPa West 6.0mph /  9.7km/h 6.0mph /  9.7km/h 96% 0.00in /  0mm 0.0 W/m2
18:28 36.9 °F /  2.7 °C 35.9 °F /  2.2 °C 30.03in /  1016.8hPa WSW 6.0mph /  9.7km/h 6.0mph /  9.7km/h 96% 0.00in /  0mm 0.0 W/m2
18:33 36.9 °F /  2.7 °C 35.9 °F /  2.2 °C 30.03in /  1016.8hPa SW 6.9mph /  11.1km/h 6.9mph /  11.1km/h 96% 0.00in /  0mm 0.0 W/m2
18:38 36.8 °F /  2.7 °C 35.8 °F /  2.1 °C 30.03in /  1016.8hPa WNW 5.8mph /  9.3km/h 5.8mph /  9.3km/h 96% 0.00in /  0mm 0.0 W/m2
18:43 36.9 °F /  2.7 °C 35.9 °F /  2.2 °C 30.04in /  1017.2hPa WSW 6.9mph /  11.1km/h 6.9mph /  11.1km/h 96% 0.00in /  0mm 0.0 W/m2
18:48 36.9 °F /  2.7 °C 35.9 °F /  2.2 °C 30.04in /  1017.2hPa SW 11.5mph /  18.5km/h 11.5mph /  18.5km/h 96% 0.00in /  0mm 0.0 W/m2
18:53 37.0 °F /  2.8 °C 36.0 °F /  2.2 °C 30.04in /  1017.2hPa SW 8.1mph /  13km/h 8.1mph /  13km/h 96% 0.00in /  0mm 0.0 W/m2
18:58 37.0 °F /  2.8 °C 36.0 °F /  2.2 °C 30.05in /  1017.5hPa SW 8.1mph /  13km/h 8.1mph /  13km/h 96% 0.00in /  0mm 0.0 W/m2
19:03 37.1 °F /  2.8 °C 36.1 °F /  2.3 °C 30.06in /  1017.8hPa West 6.9mph /  11.1km/h 6.9mph /  11.1km/h 96% 0.00in /  0mm 0.0 W/m2
19:08 37.0 °F /  2.8 °C 36.0 °F /  2.2 °C 30.06in /  1017.8hPa WSW 11.5mph /  18.5km/h 11.5mph /  18.5km/h 96% 0.00in /  0mm 0.0 W/m2
19:13 37.0 °F /  2.8 °C 36.0 °F /  2.2 °C 30.06in /  1017.8hPa WSW 9.2mph /  14.8km/h 9.2mph /  14.8km/h 96% 0.00in /  0mm 0.0 W/m2
19:18 37.0 °F /  2.8 °C 36.0 °F /  2.2 °C 30.07in /  1018.2hPa WSW 3.5mph /  5.6km/h 4.4mph /  7.1km/h 96% 0.00in /  0mm 0.0 W/m2
19:23 36.8 °F /  2.7 °C 35.5 °F /  1.9 °C 30.08in /  1018.5hPa WSW 8.1mph /  13km/h 8.1mph /  13km/h 95% 0.00in /  0mm 0.0 W/m2
19:28 36.8 °F /  2.7 °C 35.5 °F /  1.9 °C 30.08in /  1018.5hPa SW 6.9mph /  11.1km/h 6.9mph /  11.1km/h 95% 0.00in /  0mm 0.0 W/m2
19:33 36.6 °F /  2.6 °C 35.3 °F /  1.8 °C 30.08in /  1018.5hPa WSW 8.1mph /  13km/h 8.1mph /  13km/h 95% 0.00in /  0mm 0.0 W/m2
19:38 36.5 °F /  2.5 °C 35.2 °F /  1.8 °C 30.09in /  1018.8hPa WSW 10.4mph /  16.7km/h 10.4mph /  16.7km/h 95% 0.00in /  0mm 0.0 W/m2
19:43 36.4 °F /  2.4 °C 35.1 °F /  1.7 °C 30.09in /  1018.8hPa WSW 6.0mph /  9.7km/h 6.0mph /  9.7km/h 95% 0.00in /  0mm 0.0 W/m2
19:48 36.2 °F /  2.3 °C 34.9 °F /  1.6 °C 30.10in /  1019.2hPa South 12.7mph /  20.4km/h 12.7mph /  20.4km/h 95% 0.00in /  0mm 0.0 W/m2
19:53 36.1 °F /  2.3 °C 34.8 °F /  1.6 °C 30.10in /  1019.2hPa West 3.5mph /  5.6km/h 3.5mph /  5.6km/h 95% 0.00in /  0mm 0.0 W/m2
19:58 36.0 °F /  2.2 °C 34.7 °F /  1.5 °C 30.11in /  1019.5hPa SW 4.0mph /  6.4km/h 4.0mph /  6.4km/h 95% 0.00in /  0mm 0.0 W/m2
20:03 35.9 °F /  2.2 °C 34.6 °F /  1.4 °C 30.11in /  1019.5hPa SW 10.4mph /  16.7km/h 10.4mph /  16.7km/h 95% 0.00in /  0mm 0.0 W/m2
20:08 35.8 °F /  2.1 °C 34.2 °F /  1.2 °C 30.12in /  1019.9hPa SSW 4.0mph /  6.4km/h 4.0mph /  6.4km/h 94% 0.00in /  0mm 0.0 W/m2
20:13 35.7 °F /  2.1 °C 34.1 °F /  1.2 °C 30.12in /  1019.9hPa WNW 10.0mph /  16.1km/h 10.0mph /  16.1km/h 94% 0.00in /  0mm 0.0 W/m2
20:18 35.6 °F /  2 °C 34.0 °F /  1.1 °C 30.12in /  1019.9hPa WSW 10.4mph /  16.7km/h 10.4mph /  16.7km/h 94% 0.00in /  0mm 0.0 W/m2
20:23 35.6 °F /  2 °C 34.0 °F /  1.1 °C 30.13in /  1020.2hPa WSW 11.5mph /  18.5km/h 11.5mph /  18.5km/h 94% 0.00in /  0mm 0.0 W/m2
20:28 35.6 °F /  2 °C 34.0 °F /  1.1 °C 30.14in /  1020.5hPa SSW 9.2mph /  14.8km/h 9.2mph /  14.8km/h 94% 0.00in /  0mm 0.0 W/m2
20:33 35.5 °F /  1.9 °C 33.7 °F /  0.9 °C 30.14in /  1020.5hPa WSW 6.9mph /  11.1km/h 6.9mph /  11.1km/h 93% 0.00in /  0mm 0.0 W/m2
20:38 35.4 °F /  1.9 °C 33.6 °F /  0.9 °C 30.14in /  1020.5hPa WSW 10.4mph /  16.7km/h 10.4mph /  16.7km/h 93% 0.00in /  0mm 0.0 W/m2
20:43 35.3 °F /  1.8 °C 33.2 °F /  0.7 °C 30.15in /  1020.9hPa SW 11.5mph /  18.5km/h 11.5mph /  18.5km/h 92% 0.00in /  0mm 0.0 W/m2
20:48 35.3 °F /  1.8 °C 32.9 °F /  0.5 °C 30.15in /  1020.9hPa WNW 11.5mph /  18.5km/h 11.5mph /  18.5km/h 91% 0.00in /  0mm 0.0 W/m2
20:53 35.3 °F /  1.8 °C 32.9 °F /  0.5 °C 30.15in /  1020.9hPa SW 11.5mph /  18.5km/h 11.5mph /  18.5km/h 91% 0.00in /  0mm 0.0 W/m2
20:58 35.3 °F /  1.8 °C 32.9 °F /  0.5 °C 30.15in /  1020.9hPa SW 9.2mph /  14.8km/h 9.2mph /  14.8km/h 91% 0.00in /  0mm 0.0 W/m2
21:03 35.3 °F /  1.8 °C 32.9 °F /  0.5 °C 30.16in /  1021.2hPa West 8.1mph /  13km/h 8.1mph /  13km/h 91% 0.00in /  0mm 0.0 W/m2
21:08 35.2 °F /  1.8 °C 32.8 °F /  0.4 °C 30.16in /  1021.2hPa West 10.4mph /  16.7km/h 10.4mph /  16.7km/h 91% 0.00in /  0mm 0.0 W/m2
21:13 35.1 °F /  1.7 °C 32.7 °F /  0.4 °C 30.16in /  1021.2hPa SW 11.5mph /  18.5km/h 11.5mph /  18.5km/h 91% 0.00in /  0mm 0.0 W/m2
21:18 34.9 °F /  1.6 °C 32.5 °F /  0.3 °C 30.17in /  1021.6hPa West 13.8mph /  22.2km/h 13.8mph /  22.2km/h 91% 0.00in /  0mm 0.0 W/m2
21:23 34.9 °F /  1.6 °C 32.8 °F /  0.4 °C 30.18in /  1021.9hPa West 9.0mph /  14.5km/h 9.0mph /  14.5km/h 92% 0.00in /  0mm 0.0 W/m2
21:28 34.8 °F /  1.6 °C 32.7 °F /  0.4 °C 30.18in /  1021.9hPa West 8.1mph /  13km/h 8.1mph /  13km/h 92% 0.00in /  0mm 0.0 W/m2
21:33 34.8 °F /  1.6 °C 32.4 °F /  0.2 °C 30.18in /  1021.9hPa WSW 9.2mph /  14.8km/h 9.2mph /  14.8km/h 91% 0.00in /  0mm 0.0 W/m2
21:38 34.7 °F /  1.5 °C 32.3 °F /  0.2 °C 30.19in /  1022.2hPa WSW 10.4mph /  16.7km/h 10.4mph /  16.7km/h 91% 0.00in /  0mm 0.0 W/m2
21:43 34.6 °F /  1.4 °C 32.2 °F /  0.1 °C 30.19in /  1022.2hPa South 8.1mph /  13km/h 8.1mph /  13km/h 91% 0.00in /  0mm 0.0 W/m2
21:48 34.6 °F /  1.4 °C 32.2 °F /  0.1 °C 30.19in /  1022.2hPa WSW 8.1mph /  13km/h 8.1mph /  13km/h 91% 0.00in /  0mm 0.0 W/m2
21:53 34.5 °F /  1.4 °C 32.1 °F /  0.1 °C 30.20in /  1022.6hPa WSW 8.1mph /  13km/h 8.1mph /  13km/h 91% 0.00in /  0mm 0.0 W/m2
21:58 34.5 °F /  1.4 °C 31.9 °F /  -0.1 °C 30.20in /  1022.6hPa West 6.9mph /  11.1km/h 6.9mph /  11.1km/h 90% 0.00in /  0mm 0.0 W/m2
22:03 34.5 °F /  1.4 °C 31.9 °F /  -0.1 °C 30.20in /  1022.6hPa SW 11.5mph /  18.5km/h 11.5mph /  18.5km/h 90% 0.00in /  0mm 0.0 W/m2
22:08 34.4 °F /  1.3 °C 31.8 °F /  -0.1 °C 30.20in /  1022.6hPa West 8.1mph /  13km/h 8.1mph /  13km/h 90% 0.00in /  0mm 0.0 W/m2
22:13 34.3 °F /  1.3 °C 31.7 °F /  -0.2 °C 30.20in /  1022.6hPa West 11.5mph /  18.5km/h 11.5mph /  18.5km/h 90% 0.00in /  0mm 0.0 W/m2
22:18 34.3 °F /  1.3 °C 31.7 °F /  -0.2 °C 30.21in /  1022.9hPa WSW 8.0mph /  12.9km/h 8.0mph /  12.9km/h 90% 0.00in /  0mm 0.0 W/m2
22:23 34.2 °F /  1.2 °C 31.6 °F /  -0.2 °C 30.21in /  1022.9hPa SW 8.1mph /  13km/h 8.1mph /  13km/h 90% 0.00in /  0mm 0.0 W/m2
22:28 34.2 °F /  1.2 °C 31.6 °F /  -0.2 °C 30.21in /  1022.9hPa WSW 6.9mph /  11.1km/h 6.9mph /  11.1km/h 90% 0.00in /  0mm 0.0 W/m2
22:33 34.1 °F /  1.2 °C 31.5 °F /  -0.3 °C 30.21in /  1022.9hPa WSW 8.1mph /  13km/h 8.1mph /  13km/h 90% 0.00in /  0mm 0.0 W/m2
22:38 33.9 °F /  1.1 °C 31.0 °F /  -0.6 °C 30.21in /  1022.9hPa SSW 8.1mph /  13km/h 8.1mph /  13km/h 89% 0.00in /  0mm 0.0 W/m2
22:43 33.8 °F /  1 °C 30.9 °F /  -0.6 °C 30.21in /  1022.9hPa SW 9.2mph /  14.8km/h 9.2mph /  14.8km/h 89% 0.00in /  0mm 0.0 W/m2
22:48 33.7 °F /  0.9 °C 31.1 °F /  -0.5 °C 30.22in /  1023.2hPa West 6.0mph /  9.7km/h 6.0mph /  9.7km/h 90% 0.00in /  0mm 0.0 W/m2
22:53 33.5 °F /  0.8 °C 30.9 °F /  -0.6 °C 30.22in /  1023.2hPa West 9.2mph /  14.8km/h 9.2mph /  14.8km/h 90% 0.00in /  0mm 0.0 W/m2
22:58 33.4 °F /  0.8 °C 30.8 °F /  -0.7 °C 30.22in /  1023.2hPa West 8.0mph /  12.9km/h 8.0mph /  12.9km/h 90% 0.00in /  0mm 0.0 W/m2
23:03 33.3 °F /  0.7 °C 31.0 °F /  -0.6 °C 30.22in /  1023.2hPa SW 10.4mph /  16.7km/h 10.4mph /  16.7km/h 91% 0.00in /  0mm 0.0 W/m2
23:08 33.3 °F /  0.7 °C 31.0 °F /  -0.6 °C 30.23in /  1023.6hPa WSW 10.4mph /  16.7km/h 10.4mph /  16.7km/h 91% 0.00in /  0mm 0.0 W/m2
23:13 33.2 °F /  0.7 °C 30.9 °F /  -0.6 °C 30.23in /  1023.6hPa West 12.0mph /  19.3km/h 12.0mph /  19.3km/h 91% 0.00in /  0mm 0.0 W/m2
23:18 33.2 °F /  0.7 °C 31.1 °F /  -0.5 °C 30.23in /  1023.6hPa SW 10.4mph /  16.7km/h 10.4mph /  16.7km/h 92% 0.00in /  0mm 0.0 W/m2
23:23 33.2 °F /  0.7 °C 31.1 °F /  -0.5 °C 30.24in /  1023.9hPa West 5.8mph /  9.3km/h 5.8mph /  9.3km/h 92% 0.00in /  0mm 0.0 W/m2
23:28 33.2 °F /  0.7 °C 31.1 °F /  -0.5 °C 30.24in /  1023.9hPa West 11.0mph /  17.7km/h 11.0mph /  17.7km/h 92% 0.00in /  0mm 0.0 W/m2
23:33 33.2 °F /  0.7 °C 31.1 °F /  -0.5 °C 30.24in /  1023.9hPa WSW 10.0mph /  16.1km/h 10.0mph /  16.1km/h 92% 0.00in /  0mm 0.0 W/m2
23:38 33.2 °F /  0.7 °C 30.9 °F /  -0.6 °C 30.24in /  1023.9hPa WSW 11.5mph /  18.5km/h 11.5mph /  18.5km/h 91% 0.00in /  0mm 0.0 W/m2
23:43 33.2 °F /  0.7 °C 30.6 °F /  -0.8 °C 30.24in /  1023.9hPa West 17.3mph /  27.8km/h 17.3mph /  27.8km/h 90% 0.00in /  0mm 0.0 W/m2
23:48 33.3 °F /  0.7 °C 30.7 °F /  -0.7 °C 30.24in /  1023.9hPa WSW 11.5mph /  18.5km/h 11.5mph /  18.5km/h 90% 0.00in /  0mm 0.0 W/m2
23:53 33.3 °F /  0.7 °C 30.4 °F /  -0.9 °C 30.25in /  1024.3hPa WSW 13.8mph /  22.2km/h 13.8mph /  22.2km/h 89% 0.00in /  0mm 0.0 W/m2
23:58 33.3 °F /  0.7 °C 30.4 °F /  -0.9 °C 30.25in /  1024.3hPa SW 10.4mph /  16.7km/h 10.4mph /  16.7km/h 89% 0.00in /  0mm 0.0 W/m2
west seneca weather
Compliments of Weather Underground - 2 mb